sensor_id;sensor_type;location;lat;lon;timestamp;pressure;altitude;pressure_sealevel;temperature;humidity
66887;BME280;53798;51.680;5.976;2022-10-26T00:01:14;101333.16;;;10.29;91.45
66887;BME280;53798;51.680;5.976;2022-10-26T00:03:43;101337.53;;;10.30;91.51
66887;BME280;53798;51.680;5.976;2022-10-26T00:06:14;101327.84;;;10.30;91.59
66887;BME280;53798;51.680;5.976;2022-10-26T00:08:44;101324.34;;;10.30;91.41
66887;BME280;53798;51.680;5.976;2022-10-26T00:11:11;101324.38;;;10.28;91.35
66887;BME280;53798;51.680;5.976;2022-10-26T00:13:44;101319.09;;;10.30;91.66
66887;BME280;53798;51.680;5.976;2022-10-26T00:16:24;101315.50;;;10.32;91.51
66887;BME280;53798;51.680;5.976;2022-10-26T00:18:54;101311.13;;;10.31;91.66
66887;BME280;53798;51.680;5.976;2022-10-26T00:21:21;101312.81;;;10.34;91.72
66887;BME280;53798;51.680;5.976;2022-10-26T00:23:48;101314.56;;;10.35;91.64
66887;BME280;53798;51.680;5.976;2022-10-26T00:26:15;101317.16;;;10.38;91.71
66887;BME280;53798;51.680;5.976;2022-10-26T00:28:42;101322.41;;;10.39;91.48
66887;BME280;53798;51.680;5.976;2022-10-26T00:31:12;101314.47;;;10.41;91.39
66887;BME280;53798;51.680;5.976;2022-10-26T00:33:40;101320.59;;;10.41;91.60
66887;BME280;53798;51.680;5.976;2022-10-26T00:36:11;101314.44;;;10.43;91.56
66887;BME280;53798;51.680;5.976;2022-10-26T00:38:42;101316.28;;;10.39;91.58
66887;BME280;53798;51.680;5.976;2022-10-26T00:41:14;101319.75;;;10.39;91.75
66887;BME280;53798;51.680;5.976;2022-10-26T00:43:42;101325.03;;;10.41;91.77
66887;BME280;53798;51.680;5.976;2022-10-26T00:46:14;101320.56;;;10.43;91.87
66887;BME280;53798;51.680;5.976;2022-10-26T00:48:49;101317.03;;;10.44;91.65
66887;BME280;53798;51.680;5.976;2022-10-26T00:51:34;101313.47;;;10.47;91.62
66887;BME280;53798;51.680;5.976;2022-10-26T00:54:09;101308.22;;;10.45;91.74
66887;BME280;53798;51.680;5.976;2022-10-26T00:56:45;101296.78;;;10.46;91.50
66887;BME280;53798;51.680;5.976;2022-10-26T00:59:17;101313.50;;;10.45;91.87
66887;BME280;53798;51.680;5.976;2022-10-26T01:01:47;101309.97;;;10.46;91.91
66887;BME280;53798;51.680;5.976;2022-10-26T01:04:16;101305.59;;;10.45;91.76
66887;BME280;53798;51.680;5.976;2022-10-26T01:06:45;101294.97;;;10.48;92.10
66887;BME280;53798;51.680;5.976;2022-10-26T01:09:14;101297.63;;;10.48;92.00
66887;BME280;53798;51.680;5.976;2022-10-26T01:11:44;101297.50;;;10.53;92.16
66887;BME280;53798;51.680;5.976;2022-10-26T01:14:12;101279.09;;;10.51;92.36
66887;BME280;53798;51.680;5.976;2022-10-26T01:17:08;101275.53;;;10.54;92.52
66887;BME280;53798;51.680;5.976;2022-10-26T01:22:56;101258.75;;;10.58;92.77
66887;BME280;53798;51.680;5.976;2022-10-26T01:25:40;101263.97;;;10.60;92.60
66887;BME280;53798;51.680;5.976;2022-10-26T01:31:01;101279.72;;;10.63;92.62
66887;BME280;53798;51.680;5.976;2022-10-26T01:33:41;101284.91;;;10.66;92.67
66887;BME280;53798;51.680;5.976;2022-10-26T01:36:25;101279.53;;;10.70;92.51
66887;BME280;53798;51.680;5.976;2022-10-26T01:39:21;101280.34;;;10.72;92.55
66887;BME280;53798;51.680;5.976;2022-10-26T01:41:57;101280.25;;;10.77;92.69
66887;BME280;53798;51.680;5.976;2022-10-26T01:44:39;101274.91;;;10.79;92.74
66887;BME280;53798;51.680;5.976;2022-10-26T01:47:13;101270.53;;;10.79;92.46
66887;BME280;53798;51.680;5.976;2022-10-26T01:49:47;101265.25;;;10.79;92.50
66887;BME280;53798;51.680;5.976;2022-10-26T01:52:18;101254.72;;;10.79;92.54
66887;BME280;53798;51.680;5.976;2022-10-26T01:54:46;101258.25;;;10.78;92.56
66887;BME280;53798;51.680;5.976;2022-10-26T01:57:17;101256.47;;;10.79;92.36
66887;BME280;53798;51.680;5.976;2022-10-26T02:00:04;101255.56;;;10.80;92.10
66887;BME280;53798;51.680;5.976;2022-10-26T02:05:44;101241.53;;;10.79;92.36
66887;BME280;53798;51.680;5.976;2022-10-26T02:08:26;101241.56;;;10.78;92.57
66887;BME280;53798;51.680;5.976;2022-10-26T02:16:56;101231.94;;;10.75;92.76
66887;BME280;53798;51.680;5.976;2022-10-26T02:19:39;101235.47;;;10.74;92.64
66887;BME280;53798;51.680;5.976;2022-10-26T02:22:15;101234.69;;;10.72;92.96
66887;BME280;53798;51.680;5.976;2022-10-26T02:24:46;101232.00;;;10.74;93.10
66887;BME280;53798;51.680;5.976;2022-10-26T02:27:20;101233.72;;;10.75;93.17
66887;BME280;53798;51.680;5.976;2022-10-26T02:30:01;101225.75;;;10.78;93.14
66887;BME280;53798;51.680;5.976;2022-10-26T02:32:33;101230.06;;;10.80;93.15
66887;BME280;53798;51.680;5.976;2022-10-26T02:35:04;101218.63;;;10.81;93.06
66887;BME280;53798;51.680;5.976;2022-10-26T02:37:33;101218.56;;;10.83;93.43
66887;BME280;53798;51.680;5.976;2022-10-26T02:40:05;101213.34;;;10.81;93.18
66887;BME280;53798;51.680;5.976;2022-10-26T02:42:41;101219.41;;;10.85;93.20
66887;BME280;53798;51.680;5.976;2022-10-26T02:45:15;101211.44;;;10.86;92.93
66887;BME280;53798;51.680;5.976;2022-10-26T02:47:46;101205.25;;;10.87;93.16
66887;BME280;53798;51.680;5.976;2022-10-26T02:50:14;101212.22;;;10.90;93.18
66887;BME280;53798;51.680;5.976;2022-10-26T02:56:21;101209.56;;;10.92;93.11
66887;BME280;53798;51.680;5.976;2022-10-26T02:58:57;101212.16;;;10.93;92.90
66887;BME280;53798;51.680;5.976;2022-10-26T03:01:32;101213.00;;;10.95;92.73
66887;BME280;53798;51.680;5.976;2022-10-26T03:04:01;101205.03;;;10.97;92.89
66887;BME280;53798;51.680;5.976;2022-10-26T03:06:28;101196.25;;;10.96;92.94
66887;BME280;53798;51.680;5.976;2022-10-26T03:08:55;101209.47;;;10.95;92.78
66887;BME280;53798;51.680;5.976;2022-10-26T03:11:24;101205.97;;;10.94;92.65
66887;BME280;53798;51.680;5.976;2022-10-26T03:13:51;101202.56;;;10.91;92.90
66887;BME280;53798;51.680;5.976;2022-10-26T03:16:19;101196.44;;;10.88;92.81
66887;BME280;53798;51.680;5.976;2022-10-26T03:18:46;101201.78;;;10.87;92.72
66887;BME280;53798;51.680;5.976;2022-10-26T03:21:13;101200.00;;;10.87;93.03
66887;BME280;53798;51.680;5.976;2022-10-26T03:23:40;101200.03;;;10.86;92.80
66887;BME280;53798;51.680;5.976;2022-10-26T03:26:07;101203.53;;;10.86;92.84
66887;BME280;53798;51.680;5.976;2022-10-26T03:28:35;101202.56;;;10.89;93.12
66887;BME280;53798;51.680;5.976;2022-10-26T03:31:03;101197.28;;;10.91;93.04
66887;BME280;53798;51.680;5.976;2022-10-26T03:33:31;101199.94;;;10.89;93.17
66887;BME280;53798;51.680;5.976;2022-10-26T03:35:59;101200.81;;;10.90;92.95
66887;BME280;53798;51.680;5.976;2022-10-26T03:38:26;101199.09;;;10.88;92.99
66887;BME280;53798;51.680;5.976;2022-10-26T03:40:53;101202.63;;;10.87;93.09
66887;BME280;53798;51.680;5.976;2022-10-26T03:43:20;101196.50;;;10.87;93.04
66887;BME280;53798;51.680;5.976;2022-10-26T03:45:48;101200.00;;;10.87;93.06
66887;BME280;53798;51.680;5.976;2022-10-26T03:48:15;101192.97;;;10.88;93.19
66887;BME280;53798;51.680;5.976;2022-10-26T03:50:42;101193.81;;;10.88;93.33
66887;BME280;53798;51.680;5.976;2022-10-26T03:53:09;101187.59;;;10.91;93.63
66887;BME280;53798;51.680;5.976;2022-10-26T03:55:36;101186.59;;;10.95;93.61
66887;BME280;53798;51.680;5.976;2022-10-26T03:58:03;101181.25;;;10.98;93.62
66887;BME280;53798;51.680;5.976;2022-10-26T04:00:30;101192.63;;;11.00;93.70
66887;BME280;53798;51.680;5.976;2022-10-26T04:02:58;101183.78;;;11.03;93.55
66887;BME280;53798;51.680;5.976;2022-10-26T04:05:27;101183.72;;;11.05;93.66
66887;BME280;53798;51.680;5.976;2022-10-26T04:07:59;101181.03;;;11.06;93.51
66887;BME280;53798;51.680;5.976;2022-10-26T04:10:30;101174.78;;;11.10;93.64
66887;BME280;53798;51.680;5.976;2022-10-26T04:12:58;101170.34;;;11.11;93.55
66887;BME280;53798;51.680;5.976;2022-10-26T04:15:27;101179.09;;;11.13;93.58
66887;BME280;53798;51.680;5.976;2022-10-26T04:17:59;101178.16;;;11.15;93.45
66887;BME280;53798;51.680;5.976;2022-10-26T04:20:29;101172.84;;;11.17;93.36
66887;BME280;53798;51.680;5.976;2022-10-26T04:23:04;101180.72;;;11.18;93.53
66887;BME280;53798;51.680;5.976;2022-10-26T04:25:32;101184.13;;;11.22;93.48
66887;BME280;53798;51.680;5.976;2022-10-26T04:28:00;101188.44;;;11.25;93.24
66887;BME280;53798;51.680;5.976;2022-10-26T04:30:30;101184.06;;;11.25;93.35
66887;BME280;53798;51.680;5.976;2022-10-26T04:32:58;101193.66;;;11.28;93.13
66887;BME280;53798;51.680;5.976;2022-10-26T04:35:26;101190.09;;;11.29;93.18
66887;BME280;53798;51.680;5.976;2022-10-26T04:38:01;101188.41;;;11.26;93.02
66887;BME280;53798;51.680;5.976;2022-10-26T04:40:30;101190.09;;;11.29;92.96
66887;BME280;53798;51.680;5.976;2022-10-26T04:43:00;101188.38;;;11.28;92.94
66887;BME280;53798;51.680;5.976;2022-10-26T04:45:30;101184.88;;;11.27;93.19
66887;BME280;53798;51.680;5.976;2022-10-26T04:48:02;101182.13;;;11.30;93.23
66887;BME280;53798;51.680;5.976;2022-10-26T04:50:37;101181.19;;;11.33;93.18
66887;BME280;53798;51.680;5.976;2022-10-26T04:53:06;101179.34;;;11.35;93.41
66887;BME280;53798;51.680;5.976;2022-10-26T04:55:35;101167.88;;;11.38;93.13
66887;BME280;53798;51.680;5.976;2022-10-26T04:58:03;101167.75;;;11.41;93.10
66887;BME280;53798;51.680;5.976;2022-10-26T05:00:32;101165.00;;;11.45;93.36
66887;BME280;53798;51.680;5.976;2022-10-26T05:03:02;101167.41;;;11.55;93.26
66887;BME280;53798;51.680;5.976;2022-10-26T05:05:34;101164.56;;;11.61;93.50
66887;BME280;53798;51.680;5.976;2022-10-26T05:08:02;101160.78;;;11.70;93.47
66887;BME280;53798;51.680;5.976;2022-10-26T05:10:30;101163.19;;;11.77;93.35
66887;BME280;53798;51.680;5.976;2022-10-26T05:12:58;101165.66;;;11.84;93.02
66887;BME280;53798;51.680;5.976;2022-10-26T05:15:29;101164.59;;;11.89;92.71
66887;BME280;53798;51.680;5.976;2022-10-26T05:17:59;101164.41;;;11.95;92.78
66887;BME280;53798;51.680;5.976;2022-10-26T05:20:30;101166.13;;;11.96;92.47
66887;BME280;53798;51.680;5.976;2022-10-26T05:23:10;101167.84;;;11.99;92.42
66887;BME280;53798;51.680;5.976;2022-10-26T05:25:38;101170.53;;;11.98;92.16
66887;BME280;53798;51.680;5.976;2022-10-26T05:28:08;101174.03;;;11.98;92.12
66887;BME280;53798;51.680;5.976;2022-10-26T05:30:42;101172.16;;;12.02;91.86
66887;BME280;53798;51.680;5.976;2022-10-26T05:33:12;101168.53;;;12.06;92.05
66887;BME280;53798;51.680;5.976;2022-10-26T05:35:40;101166.59;;;12.11;91.93
66887;BME280;53798;51.680;5.976;2022-10-26T05:40:35;101171.84;;;12.13;91.69
66887;BME280;53798;51.680;5.976;2022-10-26T05:43:03;101174.47;;;12.13;91.78
66887;BME280;53798;51.680;5.976;2022-10-26T05:45:34;101172.59;;;12.16;91.64
66887;BME280;53798;51.680;5.976;2022-10-26T05:48:01;101170.63;;;12.23;91.80
66887;BME280;53798;51.680;5.976;2022-10-26T05:50:29;101173.13;;;12.27;91.63
66887;BME280;53798;51.680;5.976;2022-10-26T05:52:56;101181.00;;;12.29;91.51
66887;BME280;53798;51.680;5.976;2022-10-26T05:55:23;101177.50;;;12.29;91.27
66887;BME280;53798;51.680;5.976;2022-10-26T05:57:51;101172.09;;;12.32;91.29
66887;BME280;53798;51.680;5.976;2022-10-26T06:00:25;101171.25;;;12.31;91.22
66887;BME280;53798;51.680;5.976;2022-10-26T06:08:21;101180.81;;;12.35;91.27
66887;BME280;53798;51.680;5.976;2022-10-26T06:10:51;101183.34;;;12.38;91.38
66887;BME280;53798;51.680;5.976;2022-10-26T06:13:20;101185.00;;;12.42;91.15
66887;BME280;53798;51.680;5.976;2022-10-26T06:19:09;101189.47;;;12.40;90.75
66887;BME280;53798;51.680;5.976;2022-10-26T06:21:55;101196.63;;;12.37;90.80
66887;BME280;53798;51.680;5.976;2022-10-26T06:30:11;101209.84;;;12.37;90.73
66887;BME280;53798;51.680;5.976;2022-10-26T06:32:39;101213.34;;;12.37;90.64
66887;BME280;53798;51.680;5.976;2022-10-26T06:37:54;101216.91;;;12.36;90.65
66887;BME280;53798;51.680;5.976;2022-10-26T06:40:25;101211.59;;;12.38;90.78
66887;BME280;53798;51.680;5.976;2022-10-26T06:42:53;101218.59;;;12.39;90.59
66887;BME280;53798;51.680;5.976;2022-10-26T06:45:21;101205.38;;;12.39;90.63
66887;BME280;53798;51.680;5.976;2022-10-26T06:47:56;101214.06;;;12.42;90.56
66887;BME280;53798;51.680;5.976;2022-10-26T06:50:35;101209.63;;;12.43;90.51
66887;BME280;53798;51.680;5.976;2022-10-26T06:53:38;101207.81;;;12.45;90.32
66887;BME280;53798;51.680;5.976;2022-10-26T06:56:14;101213.00;;;12.48;90.37
66887;BME280;53798;51.680;5.976;2022-10-26T06:58:43;101216.41;;;12.52;90.15
66887;BME280;53798;51.680;5.976;2022-10-26T07:01:12;101218.06;;;12.56;90.23
66887;BME280;53798;51.680;5.976;2022-10-26T07:03:39;101209.16;;;12.58;90.08
66887;BME280;53798;51.680;5.976;2022-10-26T07:06:07;101222.31;;;12.60;90.02
66887;BME280;53798;51.680;5.976;2022-10-26T07:08:35;101214.38;;;12.60;89.74
66887;BME280;53798;51.680;5.976;2022-10-26T07:11:02;101210.88;;;12.60;89.51
66887;BME280;53798;51.680;5.976;2022-10-26T07:13:30;101210.13;;;12.56;89.39
66887;BME280;53798;51.680;5.976;2022-10-26T07:15:57;101212.94;;;12.51;89.26
66887;BME280;53798;51.680;5.976;2022-10-26T07:18:24;101212.94;;;12.51;89.44
66887;BME280;53798;51.680;5.976;2022-10-26T07:20:51;101215.69;;;12.47;89.51
66887;BME280;53798;51.680;5.976;2022-10-26T07:23:19;101210.47;;;12.45;89.60
66887;BME280;53798;51.680;5.976;2022-10-26T07:25:48;101207.63;;;12.51;89.49
66887;BME280;53798;51.680;5.976;2022-10-26T07:28:15;101204.72;;;12.59;89.54
66887;BME280;53798;51.680;5.976;2022-10-26T07:30:42;101203.63;;;12.66;89.51
66887;BME280;53798;51.680;5.976;2022-10-26T07:33:12;101204.16;;;12.76;89.57
66887;BME280;53798;51.680;5.976;2022-10-26T07:35:40;101200.34;;;12.85;89.42
66887;BME280;53798;51.680;5.976;2022-10-26T07:38:07;101207.09;;;12.94;89.29
66887;BME280;53798;51.680;5.976;2022-10-26T07:40:36;101210.38;;;13.00;89.27
66887;BME280;53798;51.680;5.976;2022-10-26T07:43:04;101202.09;;;13.11;88.82
66887;BME280;53798;51.680;5.976;2022-10-26T07:45:31;101210.47;;;13.24;88.44
66887;BME280;53798;51.680;5.976;2022-10-26T07:47:59;101219.91;;;13.31;88.28
66887;BME280;53798;51.680;5.976;2022-10-26T07:50:26;101225.81;;;13.40;88.18
66887;BME280;53798;51.680;5.976;2022-10-26T07:52:53;101231.66;;;13.49;87.95
66887;BME280;53798;51.680;5.976;2022-10-26T07:55:20;101245.41;;;13.59;87.66
66887;BME280;53798;51.680;5.976;2022-10-26T07:57:48;101237.13;;;13.69;87.51
66887;BME280;53798;51.680;5.976;2022-10-26T08:00:20;101239.47;;;13.78;87.38
66887;BME280;53798;51.680;5.976;2022-10-26T08:02:47;101247.91;;;13.88;87.12
66887;BME280;53798;51.680;5.976;2022-10-26T08:05:15;101245.78;;;13.97;86.82
66887;BME280;53798;51.680;5.976;2022-10-26T08:07:43;101255.97;;;14.08;86.66
66887;BME280;53798;51.680;5.976;2022-10-26T08:10:12;101258.25;;;14.18;85.95
66887;BME280;53798;51.680;5.976;2022-10-26T08:12:41;101259.56;;;14.29;85.71
66887;BME280;53798;51.680;5.976;2022-10-26T08:15:09;101253.94;;;14.39;85.53
66887;BME280;53798;51.680;5.976;2022-10-26T08:17:37;101250.03;;;14.48;84.48
66887;BME280;53798;51.680;5.976;2022-10-26T08:20:04;101247.88;;;14.57;84.66
66887;BME280;53798;51.680;5.976;2022-10-26T08:22:32;101260.78;;;14.67;84.47
66887;BME280;53798;51.680;5.976;2022-10-26T08:24:59;101256.94;;;14.74;84.03
66887;BME280;53798;51.680;5.976;2022-10-26T08:27:26;101268.06;;;14.84;84.13
66887;BME280;53798;51.680;5.976;2022-10-26T08:29:53;101275.50;;;14.96;84.09
66887;BME280;53798;51.680;5.976;2022-10-26T08:32:20;101277.09;;;15.00;84.09
66887;BME280;53798;51.680;5.976;2022-10-26T08:34:47;101274.44;;;15.00;84.06
66887;BME280;53798;51.680;5.976;2022-10-26T08:37:14;101276.19;;;15.01;83.98
66887;BME280;53798;51.680;5.976;2022-10-26T08:39:41;101279.84;;;14.99;83.66
66887;BME280;53798;51.680;5.976;2022-10-26T08:42:17;101281.81;;;14.94;83.46
66887;BME280;53798;51.680;5.976;2022-10-26T08:44:56;101282.50;;;14.99;83.25
66887;BME280;53798;51.680;5.976;2022-10-26T08:47:35;101285.59;;;15.09;83.34
66887;BME280;53798;51.680;5.976;2022-10-26T08:50:13;101293.06;;;15.21;83.26
66887;BME280;53798;51.680;5.976;2022-10-26T08:53:05;101287.06;;;15.36;83.29
66887;BME280;53798;51.680;5.976;2022-10-26T08:55:51;101281.19;;;15.50;83.23
66887;BME280;53798;51.680;5.976;2022-10-26T08:58:27;101273.41;;;15.66;82.67
66887;BME280;53798;51.680;5.976;2022-10-26T09:01:02;101278.22;;;15.77;82.37
66887;BME280;53798;51.680;5.976;2022-10-26T09:03:31;101282.84;;;15.93;82.09
66887;BME280;53798;51.680;5.976;2022-10-26T09:09:01;101283.88;;;16.28;80.59
66887;BME280;53798;51.680;5.976;2022-10-26T09:14:31;101294.03;;;16.39;80.09
66887;BME280;53798;51.680;5.976;2022-10-26T09:20:15;101296.09;;;16.52;79.17
66887;BME280;53798;51.680;5.976;2022-10-26T09:25:47;101304.22;;;16.68;79.31
66887;BME280;53798;51.680;5.976;2022-10-26T09:28:26;101300.16;;;16.78;78.75
66887;BME280;53798;51.680;5.976;2022-10-26T09:30:58;101298.81;;;16.87;78.71
66887;BME280;53798;51.680;5.976;2022-10-26T09:33:28;101302.88;;;16.96;77.89
66887;BME280;53798;51.680;5.976;2022-10-26T09:36:07;101299.75;;;17.05;78.17
66887;BME280;53798;51.680;5.976;2022-10-26T09:39:05;101292.13;;;17.15;77.94
66887;BME280;53798;51.680;5.976;2022-10-26T09:42:02;101288.78;;;17.29;77.47
66887;BME280;53798;51.680;5.976;2022-10-26T09:44:44;101288.94;;;17.26;77.84
66887;BME280;53798;51.680;5.976;2022-10-26T09:47:38;101297.94;;;17.41;77.62
66887;BME280;53798;51.680;5.976;2022-10-26T09:50:36;101302.63;;;17.53;77.75
66887;BME280;53798;51.680;5.976;2022-10-26T09:53:06;101311.69;;;17.66;77.24
66887;BME280;53798;51.680;5.976;2022-10-26T09:55:47;101321.72;;;17.79;77.00
66887;BME280;53798;51.680;5.976;2022-10-26T09:58:24;101328.38;;;17.88;76.18
66887;BME280;53798;51.680;5.976;2022-10-26T10:00:55;101332.22;;;17.99;75.58
66887;BME280;53798;51.680;5.976;2022-10-26T10:03:30;101344.00;;;18.11;75.39
66887;BME280;53798;51.680;5.976;2022-10-26T10:06:21;101340.44;;;18.28;74.72
66887;BME280;53798;51.680;5.976;2022-10-26T10:09:15;101354.94;;;18.40;74.38
66887;BME280;53798;51.680;5.976;2022-10-26T10:14:32;101363.69;;;18.58;73.91
66887;BME280;53798;51.680;5.976;2022-10-26T10:17:05;101376.53;;;18.68;73.98
66887;BME280;53798;51.680;5.976;2022-10-26T10:19:45;101376.88;;;18.77;73.85
66887;BME280;53798;51.680;5.976;2022-10-26T10:24:56;101381.31;;;18.95;71.59
66887;BME280;53798;51.680;5.976;2022-10-26T10:27:29;101375.09;;;18.94;72.15
66887;BME280;53798;51.680;5.976;2022-10-26T10:30:23;101374.81;;;18.99;71.54
66887;BME280;53798;51.680;5.976;2022-10-26T10:33:35;101383.56;;;19.02;72.06
66887;BME280;53798;51.680;5.976;2022-10-26T10:36:08;101377.06;;;19.06;72.76
66887;BME280;53798;51.680;5.976;2022-10-26T10:38:43;101383.75;;;19.14;72.02
66887;BME280;53798;51.680;5.976;2022-10-26T10:41:31;101389.56;;;19.22;71.74
66887;BME280;53798;51.680;5.976;2022-10-26T10:44:21;101391.94;;;19.27;71.33
66887;BME280;53798;51.680;5.976;2022-10-26T10:47:03;101401.44;;;19.32;71.32
66887;BME280;53798;51.680;5.976;2022-10-26T10:49:32;101403.91;;;19.35;71.29
66887;BME280;53798;51.680;5.976;2022-10-26T10:51:59;101397.72;;;19.35;71.26
66887;BME280;53798;51.680;5.976;2022-10-26T10:54:38;101406.13;;;19.43;70.94
66887;BME280;53798;51.680;5.976;2022-10-26T11:00:09;101419.72;;;19.54;69.50
66887;BME280;53798;51.680;5.976;2022-10-26T11:02:54;101418.34;;;19.63;69.67
66887;BME280;53798;51.680;5.976;2022-10-26T11:05:49;101421.69;;;19.67;69.87
66887;BME280;53798;51.680;5.976;2022-10-26T11:08:30;101425.97;;;19.69;69.53
66887;BME280;53798;51.680;5.976;2022-10-26T11:11:12;101415.09;;;19.73;69.46
66887;BME280;53798;51.680;5.976;2022-10-26T11:13:47;101421.97;;;19.77;69.15
66887;BME280;53798;51.680;5.976;2022-10-26T11:16:35;101422.38;;;19.85;69.09
66887;BME280;53798;51.680;5.976;2022-10-26T11:22:55;101434.47;;;19.92;68.74
66887;BME280;53798;51.680;5.976;2022-10-26T11:26:11;101432.53;;;19.94;68.43
66887;BME280;53798;51.680;5.976;2022-10-26T11:29:03;101438.22;;;20.04;68.42
66887;BME280;53798;51.680;5.976;2022-10-26T11:32:02;101437.81;;;20.10;68.67
66887;BME280;53798;51.680;5.976;2022-10-26T11:34:58;101434.47;;;20.07;68.37
66887;BME280;53798;51.680;5.976;2022-10-26T11:40:46;101430.47;;;20.28;67.97
66887;BME280;53798;51.680;5.976;2022-10-26T11:43:42;101438.91;;;20.37;67.55
66887;BME280;53798;51.680;5.976;2022-10-26T11:46:17;101449.59;;;20.37;67.48
66887;BME280;53798;51.680;5.976;2022-10-26T11:54:47;101455.16;;;20.48;68.13
66887;BME280;53798;51.680;5.976;2022-10-26T11:57:21;101462.72;;;20.56;68.05
66887;BME280;53798;51.680;5.976;2022-10-26T12:00:12;101455.63;;;20.69;66.93
66887;BME280;53798;51.680;5.976;2022-10-26T12:03:11;101470.53;;;20.73;66.65
66887;BME280;53798;51.680;5.976;2022-10-26T12:05:50;101474.97;;;20.74;67.11
66887;BME280;53798;51.680;5.976;2022-10-26T12:08:37;101479.47;;;20.74;66.90
66887;BME280;53798;51.680;5.976;2022-10-26T12:14:02;101475.63;;;20.63;66.89
66887;BME280;53798;51.680;5.976;2022-10-26T12:17:01;101473.63;;;20.67;66.60
66887;BME280;53798;51.680;5.976;2022-10-26T12:23:03;101471.31;;;20.61;66.86
66887;BME280;53798;51.680;5.976;2022-10-26T12:25:33;101467.00;;;20.58;66.68
66887;BME280;53798;51.680;5.976;2022-10-26T12:28:00;101478.59;;;20.59;66.46
66887;BME280;53798;51.680;5.976;2022-10-26T12:30:29;101479.56;;;20.58;66.97
66887;BME280;53798;51.680;5.976;2022-10-26T12:33:45;101478.59;;;20.59;66.98
66887;BME280;53798;51.680;5.976;2022-10-26T12:39:31;101483.44;;;20.67;65.98
66887;BME280;53798;51.680;5.976;2022-10-26T12:52:33;101502.13;;;20.68;66.18
66887;BME280;53798;51.680;5.976;2022-10-26T12:55:47;101500.00;;;20.73;65.35
66887;BME280;53798;51.680;5.976;2022-10-26T12:58:40;101499.09;;;20.74;65.57
66887;BME280;53798;51.680;5.976;2022-10-26T13:02:06;101502.78;;;20.72;66.02
66887;BME280;53798;51.680;5.976;2022-10-26T13:04:57;101507.56;;;20.67;66.12
66887;BME280;53798;51.680;5.976;2022-10-26T13:07:42;101514.94;;;20.63;66.13
66887;BME280;53798;51.680;5.976;2022-10-26T13:12:54;101517.44;;;20.66;65.95
66887;BME280;53798;51.680;5.976;2022-10-26T13:15:53;101516.28;;;20.70;65.38
66887;BME280;53798;51.680;5.976;2022-10-26T13:18:22;101512.91;;;20.67;64.84
66887;BME280;53798;51.680;5.976;2022-10-26T13:21:08;101509.94;;;20.71;65.08
66887;BME280;53798;51.680;5.976;2022-10-26T13:23:41;101509.78;;;20.74;65.61
66887;BME280;53798;51.680;5.976;2022-10-26T13:26:28;101510.47;;;20.78;66.16
66887;BME280;53798;51.680;5.976;2022-10-26T13:29:02;101515.22;;;20.87;65.94
66887;BME280;53798;51.680;5.976;2022-10-26T13:34:09;101512.38;;;20.90;65.64
66887;BME280;53798;51.680;5.976;2022-10-26T13:39:45;101510.47;;;20.92;65.19
66887;BME280;53798;51.680;5.976;2022-10-26T13:42:18;101501.34;;;20.95;64.66
66887;BME280;53798;51.680;5.976;2022-10-26T13:44:52;101512.84;;;20.97;64.64
66887;BME280;53798;51.680;5.976;2022-10-26T13:50:15;101505.28;;;21.04;64.93
66887;BME280;53798;51.680;5.976;2022-10-26T13:52:48;101523.16;;;21.03;64.58
66887;BME280;53798;51.680;5.976;2022-10-26T13:55:28;101526.50;;;21.07;65.22
66887;BME280;53798;51.680;5.976;2022-10-26T14:01:01;101521.63;;;21.14;64.17
66887;BME280;53798;51.680;5.976;2022-10-26T14:03:53;101525.06;;;21.16;64.53
66887;BME280;53798;51.680;5.976;2022-10-26T14:06:31;101532.81;;;21.20;64.36
66887;BME280;53798;51.680;5.976;2022-10-26T14:09:14;101533.75;;;21.19;63.72
66887;BME280;53798;51.680;5.976;2022-10-26T14:11:49;101536.94;;;21.12;63.71
66887;BME280;53798;51.680;5.976;2022-10-26T14:14:22;101539.91;;;21.07;64.36
66887;BME280;53798;51.680;5.976;2022-10-26T14:16:53;101535.59;;;21.04;63.95
66887;BME280;53798;51.680;5.976;2022-10-26T14:19:39;101531.97;;;21.05;64.56
66887;BME280;53798;51.680;5.976;2022-10-26T14:22:07;101532.84;;;21.06;64.60
66887;BME280;53798;51.680;5.976;2022-10-26T14:24:36;101539.06;;;21.06;64.71
66887;BME280;53798;51.680;5.976;2022-10-26T14:27:20;101534.00;;;21.02;64.84
66887;BME280;53798;51.680;5.976;2022-10-26T14:29:52;101544.59;;;21.03;65.09
66887;BME280;53798;51.680;5.976;2022-10-26T14:32:40;101536.00;;;20.98;64.93
66887;BME280;53798;51.680;5.976;2022-10-26T14:35:12;101543.47;;;20.93;65.08
66887;BME280;53798;51.680;5.976;2022-10-26T14:38:06;101539.06;;;20.92;65.05
66887;BME280;53798;51.680;5.976;2022-10-26T14:40:46;101544.63;;;20.89;65.16
66887;BME280;53798;51.680;5.976;2022-10-26T14:43:20;101546.84;;;20.82;65.42
66887;BME280;53798;51.680;5.976;2022-10-26T14:45:51;101555.22;;;20.76;65.67
66887;BME280;53798;51.680;5.976;2022-10-26T14:48:23;101561.56;;;20.75;65.97
66887;BME280;53798;51.680;5.976;2022-10-26T14:51:00;101569.63;;;20.75;66.02
66887;BME280;53798;51.680;5.976;2022-10-26T14:53:34;101580.13;;;20.78;65.70
66887;BME280;53798;51.680;5.976;2022-10-26T14:56:05;101583.06;;;20.73;65.22
66887;BME280;53798;51.680;5.976;2022-10-26T14:58:47;101587.63;;;20.71;64.97
66887;BME280;53798;51.680;5.976;2022-10-26T15:08:58;101599.41;;;20.69;64.36
66887;BME280;53798;51.680;5.976;2022-10-26T15:11:27;101602.09;;;20.69;64.72
66887;BME280;53798;51.680;5.976;2022-10-26T15:13:57;101611.28;;;20.64;64.33
66887;BME280;53798;51.680;5.976;2022-10-26T15:16:37;101611.47;;;20.61;63.92
66887;BME280;53798;51.680;5.976;2022-10-26T15:19:09;101614.69;;;20.52;64.41
66887;BME280;53798;51.680;5.976;2022-10-26T15:21:47;101622.50;;;20.41;64.67